sensor_id;sensor_type;location;lat;lon;timestamp;P1;durP1;ratioP1;P2;durP2;ratioP2
55076;SDS011;40971;44.702;11.030;2022-10-31T00:02:10;35.28;;;12.00;;
55076;SDS011;40971;44.702;11.030;2022-10-31T00:04:36;32.75;;;11.82;;
55076;SDS011;40971;44.702;11.030;2022-10-31T00:07:01;26.40;;;12.63;;
55076;SDS011;40971;44.702;11.030;2022-10-31T00:09:27;28.50;;;13.57;;
55076;SDS011;40971;44.702;11.030;2022-10-31T00:11:52;32.58;;;11.98;;
55076;SDS011;40971;44.702;11.030;2022-10-31T00:14:17;33.00;;;12.27;;
55076;SDS011;40971;44.702;11.030;2022-10-31T00:16:43;30.88;;;13.52;;
55076;SDS011;40971;44.702;11.030;2022-10-31T00:19:08;29.33;;;12.20;;
55076;SDS011;40971;44.702;11.030;2022-10-31T00:21:34;33.90;;;13.27;;
55076;SDS011;40971;44.702;11.030;2022-10-31T00:24:00;25.48;;;11.90;;
55076;SDS011;40971;44.702;11.030;2022-10-31T00:26:29;25.63;;;12.18;;
55076;SDS011;40971;44.702;11.030;2022-10-31T00:28:56;28.75;;;12.65;;
55076;SDS011;40971;44.702;11.030;2022-10-31T00:31:22;37.17;;;12.20;;
55076;SDS011;40971;44.702;11.030;2022-10-31T00:33:50;27.15;;;13.35;;
55076;SDS011;40971;44.702;11.030;2022-10-31T00:36:16;32.53;;;13.10;;
55076;SDS011;40971;44.702;11.030;2022-10-31T00:38:44;25.70;;;12.23;;
55076;SDS011;40971;44.702;11.030;2022-10-31T00:41:10;34.17;;;12.27;;
55076;SDS011;40971;44.702;11.030;2022-10-31T00:43:37;28.83;;;11.73;;
55076;SDS011;40971;44.702;11.030;2022-10-31T00:46:05;25.25;;;11.88;;
55076;SDS011;40971;44.702;11.030;2022-10-31T00:48:31;39.50;;;13.20;;
55076;SDS011;40971;44.702;11.030;2022-10-31T00:50:56;44.45;;;13.10;;
55076;SDS011;40971;44.702;11.030;2022-10-31T00:53:22;31.33;;;12.52;;
55076;SDS011;40971;44.702;11.030;2022-10-31T00:55:47;35.25;;;10.98;;
55076;SDS011;40971;44.702;11.030;2022-10-31T00:58:13;27.75;;;11.63;;
55076;SDS011;40971;44.702;11.030;2022-10-31T01:00:38;29.90;;;10.75;;
55076;SDS011;40971;44.702;11.030;2022-10-31T01:03:04;31.10;;;12.10;;
55076;SDS011;40971;44.702;11.030;2022-10-31T01:05:29;29.67;;;11.98;;
55076;SDS011;40971;44.702;11.030;2022-10-31T01:07:55;32.25;;;11.60;;
55076;SDS011;40971;44.702;11.030;2022-10-31T01:10:21;32.47;;;11.77;;
55076;SDS011;40971;44.702;11.030;2022-10-31T01:12:47;43.20;;;13.55;;
55076;SDS011;40971;44.702;11.030;2022-10-31T01:15:15;31.45;;;12.05;;
55076;SDS011;40971;44.702;11.030;2022-10-31T01:17:42;31.05;;;13.15;;
55076;SDS011;40971;44.702;11.030;2022-10-31T01:20:08;37.20;;;13.23;;
55076;SDS011;40971;44.702;11.030;2022-10-31T01:22:35;26.98;;;11.85;;
55076;SDS011;40971;44.702;11.030;2022-10-31T01:25:01;34.42;;;12.88;;
55076;SDS011;40971;44.702;11.030;2022-10-31T01:27:27;28.63;;;12.05;;
55076;SDS011;40971;44.702;11.030;2022-10-31T01:29:52;30.70;;;11.95;;
55076;SDS011;40971;44.702;11.030;2022-10-31T01:32:18;31.27;;;11.70;;
55076;SDS011;40971;44.702;11.030;2022-10-31T01:34:43;21.40;;;11.30;;
55076;SDS011;40971;44.702;11.030;2022-10-31T01:37:08;35.30;;;11.15;;
55076;SDS011;40971;44.702;11.030;2022-10-31T01:39:34;27.30;;;11.13;;
55076;SDS011;40971;44.702;11.030;2022-10-31T01:41:59;24.88;;;12.80;;
55076;SDS011;40971;44.702;11.030;2022-10-31T01:49:40;27.08;;;13.00;;
55076;SDS011;40971;44.702;11.030;2022-10-31T01:52:12;26.33;;;11.23;;
55076;SDS011;40971;44.702;11.030;2022-10-31T01:54:43;32.97;;;13.45;;
55076;SDS011;40971;44.702;11.030;2022-10-31T01:57:15;33.13;;;14.00;;
55076;SDS011;40971;44.702;11.030;2022-10-31T01:59:44;31.20;;;13.52;;
55076;SDS011;40971;44.702;11.030;2022-10-31T02:02:13;27.80;;;13.45;;
55076;SDS011;40971;44.702;11.030;2022-10-31T02:04:40;34.03;;;14.25;;
55076;SDS011;40971;44.702;11.030;2022-10-31T02:07:10;31.50;;;14.02;;
55076;SDS011;40971;44.702;11.030;2022-10-31T02:09:39;32.47;;;12.35;;
55076;SDS011;40971;44.702;11.030;2022-10-31T02:12:06;32.55;;;12.80;;
55076;SDS011;40971;44.702;11.030;2022-10-31T02:14:34;26.88;;;12.73;;
55076;SDS011;40971;44.702;11.030;2022-10-31T02:17:00;35.17;;;13.23;;
55076;SDS011;40971;44.702;11.030;2022-10-31T02:22:20;29.67;;;12.15;;
55076;SDS011;40971;44.702;11.030;2022-10-31T02:33:25;27.10;;;11.88;;
55076;SDS011;40971;44.702;11.030;2022-10-31T02:36:04;22.80;;;9.55;;
55076;SDS011;40971;44.702;11.030;2022-10-31T02:39:00;22.67;;;10.48;;
55076;SDS011;40971;44.702;11.030;2022-10-31T02:41:48;30.17;;;12.57;;
55076;SDS011;40971;44.702;11.030;2022-10-31T02:44:22;26.05;;;11.32;;
55076;SDS011;40971;44.702;11.030;2022-10-31T02:46:52;22.90;;;10.35;;
55076;SDS011;40971;44.702;11.030;2022-10-31T02:49:40;27.88;;;11.65;;
55076;SDS011;40971;44.702;11.030;2022-10-31T02:52:26;26.73;;;12.38;;
55076;SDS011;40971;44.702;11.030;2022-10-31T02:54:53;23.77;;;11.38;;
55076;SDS011;40971;44.702;11.030;2022-10-31T02:57:23;29.83;;;13.38;;
55076;SDS011;40971;44.702;11.030;2022-10-31T02:59:53;29.63;;;12.25;;
55076;SDS011;40971;44.702;11.030;2022-10-31T03:16:09;33.00;;;14.73;;
55076;SDS011;40971;44.702;11.030;2022-10-31T03:18:40;28.27;;;13.25;;
55076;SDS011;40971;44.702;11.030;2022-10-31T03:21:13;31.65;;;13.50;;
55076;SDS011;40971;44.702;11.030;2022-10-31T03:23:44;29.20;;;13.50;;
55076;SDS011;40971;44.702;11.030;2022-10-31T03:26:11;24.25;;;13.45;;
55076;SDS011;40971;44.702;11.030;2022-10-31T03:28:43;31.60;;;13.35;;
55076;SDS011;40971;44.702;11.030;2022-10-31T03:31:17;32.40;;;13.35;;
55076;SDS011;40971;44.702;11.030;2022-10-31T03:33:45;37.25;;;14.98;;
55076;SDS011;40971;44.702;11.030;2022-10-31T03:36:13;27.40;;;13.55;;
55076;SDS011;40971;44.702;11.030;2022-10-31T03:38:41;28.15;;;12.60;;
55076;SDS011;40971;44.702;11.030;2022-10-31T03:41:27;26.55;;;10.15;;
55076;SDS011;40971;44.702;11.030;2022-10-31T03:44:01;22.60;;;10.13;;
55076;SDS011;40971;44.702;11.030;2022-10-31T03:46:32;26.47;;;11.47;;
55076;SDS011;40971;44.702;11.030;2022-10-31T03:48:57;26.83;;;12.75;;
55076;SDS011;40971;44.702;11.030;2022-10-31T03:59:55;21.65;;;10.27;;
55076;SDS011;40971;44.702;11.030;2022-10-31T04:02:27;24.40;;;10.88;;
55076;SDS011;40971;44.702;11.030;2022-10-31T04:04:55;28.00;;;10.88;;
55076;SDS011;40971;44.702;11.030;2022-10-31T04:07:22;26.60;;;11.15;;
55076;SDS011;40971;44.702;11.030;2022-10-31T04:09:54;27.98;;;12.07;;
55076;SDS011;40971;44.702;11.030;2022-10-31T04:12:21;23.77;;;10.90;;
55076;SDS011;40971;44.702;11.030;2022-10-31T04:14:50;39.55;;;11.77;;
55076;SDS011;40971;44.702;11.030;2022-10-31T04:17:18;22.15;;;10.20;;
55076;SDS011;40971;44.702;11.030;2022-10-31T04:19:46;29.60;;;9.32;;
55076;SDS011;40971;44.702;11.030;2022-10-31T04:22:12;20.23;;;10.05;;
55076;SDS011;40971;44.702;11.030;2022-10-31T04:24:38;23.65;;;11.00;;
55076;SDS011;40971;44.702;11.030;2022-10-31T04:27:05;22.17;;;9.43;;
55076;SDS011;40971;44.702;11.030;2022-10-31T04:29:30;26.05;;;10.48;;
55076;SDS011;40971;44.702;11.030;2022-10-31T04:31:56;21.85;;;9.38;;
55076;SDS011;40971;44.702;11.030;2022-10-31T04:34:21;21.85;;;10.57;;
55076;SDS011;40971;44.702;11.030;2022-10-31T04:36:47;24.67;;;10.68;;
55076;SDS011;40971;44.702;11.030;2022-10-31T04:39:12;22.85;;;10.85;;
55076;SDS011;40971;44.702;11.030;2022-10-31T04:41:37;23.90;;;10.57;;
55076;SDS011;40971;44.702;11.030;2022-10-31T04:44:03;22.73;;;10.50;;
55076;SDS011;40971;44.702;11.030;2022-10-31T04:46:28;25.17;;;11.70;;
55076;SDS011;40971;44.702;11.030;2022-10-31T04:48:54;27.35;;;11.20;;
55076;SDS011;40971;44.702;11.030;2022-10-31T04:51:19;26.55;;;10.30;;
55076;SDS011;40971;44.702;11.030;2022-10-31T04:53:45;24.08;;;11.23;;
55076;SDS011;40971;44.702;11.030;2022-10-31T04:56:10;24.73;;;10.77;;
55076;SDS011;40971;44.702;11.030;2022-10-31T04:58:35;24.30;;;10.32;;
55076;SDS011;40971;44.702;11.030;2022-10-31T05:01:01;19.08;;;9.30;;
55076;SDS011;40971;44.702;11.030;2022-10-31T05:03:26;23.98;;;9.52;;
55076;SDS011;40971;44.702;11.030;2022-10-31T05:05:52;28.83;;;10.05;;
55076;SDS011;40971;44.702;11.030;2022-10-31T05:08:17;21.33;;;9.68;;
55076;SDS011;40971;44.702;11.030;2022-10-31T05:10:42;20.40;;;10.43;;
55076;SDS011;40971;44.702;11.030;2022-10-31T05:13:08;19.58;;;9.68;;
55076;SDS011;40971;44.702;11.030;2022-10-31T05:15:33;74.13;;;12.48;;
55076;SDS011;40971;44.702;11.030;2022-10-31T05:17:59;42.13;;;11.50;;
55076;SDS011;40971;44.702;11.030;2022-10-31T05:20:25;65.05;;;12.68;;
55076;SDS011;40971;44.702;11.030;2022-10-31T05:22:53;27.08;;;9.32;;
55076;SDS011;40971;44.702;11.030;2022-10-31T05:25:21;26.90;;;9.60;;
55076;SDS011;40971;44.702;11.030;2022-10-31T05:27:48;29.90;;;11.82;;
55076;SDS011;40971;44.702;11.030;2022-10-31T05:30:16;47.67;;;11.05;;
55076;SDS011;40971;44.702;11.030;2022-10-31T05:32:47;22.20;;;9.43;;
55076;SDS011;40971;44.702;11.030;2022-10-31T05:35:21;23.73;;;10.57;;
55076;SDS011;40971;44.702;11.030;2022-10-31T05:37:49;21.88;;;9.82;;
55076;SDS011;40971;44.702;11.030;2022-10-31T05:40:15;26.65;;;10.52;;
55076;SDS011;40971;44.702;11.030;2022-10-31T05:42:42;22.05;;;9.52;;
55076;SDS011;40971;44.702;11.030;2022-10-31T05:45:09;27.77;;;11.25;;
55076;SDS011;40971;44.702;11.030;2022-10-31T05:47:36;23.90;;;11.77;;
55076;SDS011;40971;44.702;11.030;2022-10-31T05:50:02;37.72;;;11.20;;
55076;SDS011;40971;44.702;11.030;2022-10-31T05:52:28;23.92;;;10.63;;
55076;SDS011;40971;44.702;11.030;2022-10-31T05:54:53;26.08;;;10.95;;
55076;SDS011;40971;44.702;11.030;2022-10-31T05:57:19;38.00;;;10.70;;
55076;SDS011;40971;44.702;11.030;2022-10-31T05:59:44;23.77;;;10.73;;
55076;SDS011;40971;44.702;11.030;2022-10-31T06:02:09;28.92;;;10.68;;
55076;SDS011;40971;44.702;11.030;2022-10-31T06:04:36;24.80;;;11.45;;
55076;SDS011;40971;44.702;11.030;2022-10-31T06:07:03;28.55;;;13.27;;
55076;SDS011;40971;44.702;11.030;2022-10-31T06:09:30;29.98;;;13.75;;
55076;SDS011;40971;44.702;11.030;2022-10-31T06:11:56;42.08;;;13.68;;
55076;SDS011;40971;44.702;11.030;2022-10-31T06:14:21;27.15;;;13.23;;
55076;SDS011;40971;44.702;11.030;2022-10-31T06:16:46;29.98;;;13.32;;
55076;SDS011;40971;44.702;11.030;2022-10-31T06:19:12;28.67;;;13.85;;
55076;SDS011;40971;44.702;11.030;2022-10-31T06:21:37;27.83;;;12.82;;
55076;SDS011;40971;44.702;11.030;2022-10-31T06:24:03;28.17;;;12.18;;
55076;SDS011;40971;44.702;11.030;2022-10-31T06:26:41;33.05;;;13.35;;
55076;SDS011;40971;44.702;11.030;2022-10-31T06:29:06;33.35;;;13.68;;
55076;SDS011;40971;44.702;11.030;2022-10-31T06:31:31;30.08;;;14.65;;
55076;SDS011;40971;44.702;11.030;2022-10-31T06:33:57;35.47;;;14.23;;
55076;SDS011;40971;44.702;11.030;2022-10-31T06:36:22;32.90;;;13.15;;
55076;SDS011;40971;44.702;11.030;2022-10-31T06:38:48;23.83;;;12.00;;
55076;SDS011;40971;44.702;11.030;2022-10-31T06:41:13;28.65;;;12.18;;
55076;SDS011;40971;44.702;11.030;2022-10-31T06:43:39;27.60;;;11.80;;
55076;SDS011;40971;44.702;11.030;2022-10-31T06:46:04;35.33;;;14.25;;
55076;SDS011;40971;44.702;11.030;2022-10-31T06:48:30;31.33;;;13.32;;
55076;SDS011;40971;44.702;11.030;2022-10-31T06:51:00;24.67;;;11.82;;
55076;SDS011;40971;44.702;11.030;2022-10-31T06:53:26;29.48;;;12.52;;
55076;SDS011;40971;44.702;11.030;2022-10-31T06:55:55;26.70;;;13.23;;
55076;SDS011;40971;44.702;11.030;2022-10-31T06:58:21;31.77;;;13.60;;
55076;SDS011;40971;44.702;11.030;2022-10-31T07:00:47;32.40;;;12.65;;
55076;SDS011;40971;44.702;11.030;2022-10-31T07:03:16;22.40;;;12.20;;
55076;SDS011;40971;44.702;11.030;2022-10-31T07:05:49;26.73;;;12.05;;
55076;SDS011;40971;44.702;11.030;2022-10-31T07:08:15;33.70;;;13.15;;
55076;SDS011;40971;44.702;11.030;2022-10-31T07:10:55;26.05;;;12.40;;
55076;SDS011;40971;44.702;11.030;2022-10-31T07:13:22;34.80;;;13.52;;
55076;SDS011;40971;44.702;11.030;2022-10-31T07:15:52;28.45;;;13.40;;
55076;SDS011;40971;44.702;11.030;2022-10-31T07:18:19;34.42;;;13.70;;
55076;SDS011;40971;44.702;11.030;2022-10-31T07:20:55;33.90;;;14.13;;
55076;SDS011;40971;44.702;11.030;2022-10-31T07:23:21;29.90;;;12.75;;
55076;SDS011;40971;44.702;11.030;2022-10-31T07:25:47;33.90;;;13.80;;
55076;SDS011;40971;44.702;11.030;2022-10-31T07:28:13;24.42;;;12.68;;
55076;SDS011;40971;44.702;11.030;2022-10-31T07:30:39;41.45;;;11.85;;
55076;SDS011;40971;44.702;11.030;2022-10-31T07:33:05;29.23;;;11.90;;
55076;SDS011;40971;44.702;11.030;2022-10-31T07:35:31;29.20;;;11.65;;
55076;SDS011;40971;44.702;11.030;2022-10-31T07:37:57;29.08;;;11.68;;
55076;SDS011;40971;44.702;11.030;2022-10-31T07:40:31;26.52;;;11.48;;
55076;SDS011;40971;44.702;11.030;2022-10-31T07:42:58;20.92;;;10.73;;
55076;SDS011;40971;44.702;11.030;2022-10-31T07:45:23;21.95;;;10.05;;
55076;SDS011;40971;44.702;11.030;2022-10-31T07:47:50;26.45;;;10.43;;
55076;SDS011;40971;44.702;11.030;2022-10-31T07:50:18;24.80;;;9.07;;
55076;SDS011;40971;44.702;11.030;2022-10-31T07:52:48;22.15;;;9.05;;
55076;SDS011;40971;44.702;11.030;2022-10-31T07:55:22;21.02;;;9.27;;
55076;SDS011;40971;44.702;11.030;2022-10-31T07:57:55;28.88;;;9.15;;
55076;SDS011;40971;44.702;11.030;2022-10-31T08:00:29;23.33;;;9.93;;
55076;SDS011;40971;44.702;11.030;2022-10-31T08:02:59;21.90;;;8.90;;
55076;SDS011;40971;44.702;11.030;2022-10-31T08:05:26;64.57;;;18.45;;
55076;SDS011;40971;44.702;11.030;2022-10-31T08:07:53;225.55;;;54.67;;
55076;SDS011;40971;44.702;11.030;2022-10-31T08:10:19;68.28;;;18.73;;
55076;SDS011;40971;44.702;11.030;2022-10-31T08:12:54;58.03;;;14.15;;
55076;SDS011;40971;44.702;11.030;2022-10-31T08:15:21;66.15;;;20.92;;
55076;SDS011;40971;44.702;11.030;2022-10-31T08:17:46;23.52;;;11.13;;
55076;SDS011;40971;44.702;11.030;2022-10-31T08:20:12;24.02;;;10.63;;
55076;SDS011;40971;44.702;11.030;2022-10-31T08:22:37;23.45;;;9.25;;
55076;SDS011;40971;44.702;11.030;2022-10-31T08:25:03;27.75;;;11.65;;
55076;SDS011;40971;44.702;11.030;2022-10-31T08:27:28;30.05;;;12.32;;
55076;SDS011;40971;44.702;11.030;2022-10-31T08:29:54;23.98;;;11.07;;
55076;SDS011;40971;44.702;11.030;2022-10-31T08:32:19;79.68;;;13.50;;
55076;SDS011;40971;44.702;11.030;2022-10-31T08:34:48;29.95;;;10.82;;
55076;SDS011;40971;44.702;11.030;2022-10-31T08:37:13;45.20;;;10.93;;
55076;SDS011;40971;44.702;11.030;2022-10-31T08:39:44;23.08;;;9.38;;
55076;SDS011;40971;44.702;11.030;2022-10-31T08:42:12;33.80;;;9.52;;
55076;SDS011;40971;44.702;11.030;2022-10-31T08:44:41;22.42;;;9.45;;
55076;SDS011;40971;44.702;11.030;2022-10-31T08:47:07;23.70;;;10.20;;
55076;SDS011;40971;44.702;11.030;2022-10-31T08:49:32;32.63;;;10.43;;
55076;SDS011;40971;44.702;11.030;2022-10-31T08:51:57;23.10;;;10.32;;
55076;SDS011;40971;44.702;11.030;2022-10-31T08:54:23;26.35;;;10.07;;
55076;SDS011;40971;44.702;11.030;2022-10-31T08:56:54;23.20;;;9.55;;
55076;SDS011;40971;44.702;11.030;2022-10-31T08:59:20;24.38;;;9.18;;
55076;SDS011;40971;44.702;11.030;2022-10-31T09:01:46;21.83;;;10.52;;
55076;SDS011;40971;44.702;11.030;2022-10-31T09:04:11;31.95;;;10.93;;
55076;SDS011;40971;44.702;11.030;2022-10-31T09:06:36;26.45;;;10.50;;
55076;SDS011;40971;44.702;11.030;2022-10-31T09:09:02;40.95;;;10.93;;
55076;SDS011;40971;44.702;11.030;2022-10-31T09:11:29;33.53;;;11.95;;
55076;SDS011;40971;44.702;11.030;2022-10-31T09:13:55;28.65;;;10.32;;
55076;SDS011;40971;44.702;11.030;2022-10-31T09:16:20;22.67;;;10.43;;
55076;SDS011;40971;44.702;11.030;2022-10-31T09:18:46;23.23;;;10.32;;
55076;SDS011;40971;44.702;11.030;2022-10-31T09:21:11;25.17;;;10.48;;
55076;SDS011;40971;44.702;11.030;2022-10-31T09:23:36;28.05;;;10.45;;
55076;SDS011;40971;44.702;11.030;2022-10-31T09:26:02;20.95;;;10.00;;
55076;SDS011;40971;44.702;11.030;2022-10-31T09:28:28;25.17;;;10.25;;
55076;SDS011;40971;44.702;11.030;2022-10-31T09:30:54;24.23;;;9.52;;
55076;SDS011;40971;44.702;11.030;2022-10-31T09:33:20;32.20;;;10.55;;
55076;SDS011;40971;44.702;11.030;2022-10-31T09:35:46;27.20;;;9.90;;
55076;SDS011;40971;44.702;11.030;2022-10-31T09:38:12;26.27;;;10.35;;
55076;SDS011;40971;44.702;11.030;2022-10-31T09:40:44;23.30;;;9.93;;
55076;SDS011;40971;44.702;11.030;2022-10-31T09:43:14;22.90;;;9.98;;
55076;SDS011;40971;44.702;11.030;2022-10-31T09:48:31;32.20;;;10.05;;
55076;SDS011;40971;44.702;11.030;2022-10-31T09:51:11;28.40;;;9.40;;
55076;SDS011;40971;44.702;11.030;2022-10-31T09:53:55;24.33;;;8.23;;
55076;SDS011;40971;44.702;11.030;2022-10-31T09:56:22;27.98;;;8.98;;
55076;SDS011;40971;44.702;11.030;2022-10-31T09:58:51;25.27;;;9.20;;
55076;SDS011;40971;44.702;11.030;2022-10-31T10:01:34;21.40;;;8.70;;
55076;SDS011;40971;44.702;11.030;2022-10-31T10:04:09;19.30;;;8.48;;
55076;SDS011;40971;44.702;11.030;2022-10-31T10:06:58;20.33;;;7.68;;
55076;SDS011;40971;44.702;11.030;2022-10-31T10:09:32;30.35;;;7.65;;
55076;SDS011;40971;44.702;11.030;2022-10-31T10:17:55;30.30;;;8.60;;
55076;SDS011;40971;44.702;11.030;2022-10-31T10:26:10;14.98;;;7.15;;
55076;SDS011;40971;44.702;11.030;2022-10-31T10:28:43;26.15;;;7.70;;
55076;SDS011;40971;44.702;11.030;2022-10-31T10:31:20;23.80;;;7.65;;
55076;SDS011;40971;44.702;11.030;2022-10-31T10:34:33;28.63;;;9.05;;
55076;SDS011;40971;44.702;11.030;2022-10-31T10:36:42;34.28;;;8.77;;
55076;SDS011;40971;44.702;11.030;2022-10-31T10:39:16;18.58;;;7.95;;
55076;SDS011;40971;44.702;11.030;2022-10-31T10:41:49;32.33;;;8.48;;
55076;SDS011;40971;44.702;11.030;2022-10-31T10:44:48;29.25;;;9.07;;
55076;SDS011;40971;44.702;11.030;2022-10-31T10:47:40;17.05;;;8.02;;
55076;SDS011;40971;44.702;11.030;2022-10-31T10:52:48;26.15;;;8.48;;
55076;SDS011;40971;44.702;11.030;2022-10-31T10:58:08;25.40;;;7.75;;
55076;SDS011;40971;44.702;11.030;2022-10-31T11:00:37;23.77;;;8.82;;
55076;SDS011;40971;44.702;11.030;2022-10-31T11:03:13;27.90;;;10.10;;
55076;SDS011;40971;44.702;11.030;2022-10-31T11:05:44;24.38;;;8.48;;
55076;SDS011;40971;44.702;11.030;2022-10-31T11:11:29;18.67;;;8.20;;
55076;SDS011;40971;44.702;11.030;2022-10-31T11:14:06;19.55;;;8.63;;
55076;SDS011;40971;44.702;11.030;2022-10-31T11:16:39;25.33;;;8.32;;
55076;SDS011;40971;44.702;11.030;2022-10-31T11:19:18;23.95;;;8.50;;
55076;SDS011;40971;44.702;11.030;2022-10-31T11:21:47;28.48;;;8.52;;
55076;SDS011;40971;44.702;11.030;2022-10-31T11:26:51;22.00;;;8.15;;
55076;SDS011;40971;44.702;11.030;2022-10-31T11:29:27;21.77;;;7.82;;
55076;SDS011;40971;44.702;11.030;2022-10-31T11:31:54;28.65;;;9.75;;
55076;SDS011;40971;44.702;11.030;2022-10-31T11:36:53;22.60;;;8.85;;
55076;SDS011;40971;44.702;11.030;2022-10-31T11:39:21;16.80;;;8.32;;
55076;SDS011;40971;44.702;11.030;2022-10-31T11:41:49;25.33;;;9.68;;
55076;SDS011;40971;44.702;11.030;2022-10-31T11:44:20;25.60;;;9.00;;
55076;SDS011;40971;44.702;11.030;2022-10-31T11:46:55;24.80;;;9.55;;
55076;SDS011;40971;44.702;11.030;2022-10-31T11:52:06;31.40;;;9.48;;
55076;SDS011;40971;44.702;11.030;2022-10-31T11:57:20;24.42;;;8.80;;
55076;SDS011;40971;44.702;11.030;2022-10-31T11:59:52;23.95;;;8.25;;
55076;SDS011;40971;44.702;11.030;2022-10-31T12:02:20;22.90;;;8.88;;
55076;SDS011;40971;44.702;11.030;2022-10-31T12:04:51;23.02;;;8.32;;
55076;SDS011;40971;44.702;11.030;2022-10-31T12:07:27;25.45;;;8.10;;
55076;SDS011;40971;44.702;11.030;2022-10-31T12:09:53;29.45;;;9.45;;
55076;SDS011;40971;44.702;11.030;2022-10-31T12:15:03;24.60;;;8.55;;
55076;SDS011;40971;44.702;11.030;2022-10-31T12:28:35;21.83;;;8.30;;
55076;SDS011;40971;44.702;11.030;2022-10-31T12:34:33;26.55;;;8.98;;
55076;SDS011;40971;44.702;11.030;2022-10-31T12:37:28;22.10;;;8.48;;
55076;SDS011;40971;44.702;11.030;2022-10-31T12:50:38;18.38;;;7.20;;
55076;SDS011;40971;44.702;11.030;2022-10-31T12:55:42;17.75;;;6.88;;
55076;SDS011;40971;44.702;11.030;2022-10-31T12:58:33;19.80;;;7.82;;
55076;SDS011;40971;44.702;11.030;2022-10-31T13:01:04;22.00;;;7.78;;
55076;SDS011;40971;44.702;11.030;2022-10-31T13:06:40;17.95;;;6.95;;
55076;SDS011;40971;44.702;11.030;2022-10-31T13:09:11;21.58;;;7.85;;
55076;SDS011;40971;44.702;11.030;2022-10-31T13:11:49;22.00;;;6.53;;
55076;SDS011;40971;44.702;11.030;2022-10-31T13:16:59;20.92;;;7.82;;
55076;SDS011;40971;44.702;11.030;2022-10-31T13:19:37;21.00;;;7.28;;
55076;SDS011;40971;44.702;11.030;2022-10-31T13:22:11;18.10;;;7.13;;
55076;SDS011;40971;44.702;11.030;2022-10-31T13:24:52;20.15;;;6.60;;
55076;SDS011;40971;44.702;11.030;2022-10-31T13:27:25;17.90;;;7.10;;
55076;SDS011;40971;44.702;11.030;2022-10-31T13:32:20;15.80;;;6.43;;
55076;SDS011;40971;44.702;11.030;2022-10-31T13:34:47;21.42;;;7.22;;
55076;SDS011;40971;44.702;11.030;2022-10-31T13:45:27;20.85;;;6.22;;
55076;SDS011;40971;44.702;11.030;2022-10-31T13:50:39;19.15;;;6.10;;
55076;SDS011;40971;44.702;11.030;2022-10-31T13:53:13;15.40;;;6.10;;
55076;SDS011;40971;44.702;11.030;2022-10-31T13:55:43;21.42;;;6.00;;
55076;SDS011;40971;44.702;11.030;2022-10-31T14:03:38;20.13;;;6.28;;
55076;SDS011;40971;44.702;11.030;2022-10-31T14:06:06;20.05;;;7.00;;
55076;SDS011;40971;44.702;11.030;2022-10-31T14:08:34;19.98;;;6.18;;
55076;SDS011;40971;44.702;11.030;2022-10-31T14:11:03;20.25;;;6.70;;
55076;SDS011;40971;44.702;11.030;2022-10-31T14:13:33;18.83;;;5.70;;
55076;SDS011;40971;44.702;11.030;2022-10-31T14:16:27;24.45;;;6.88;;
55076;SDS011;40971;44.702;11.030;2022-10-31T14:21:52;16.38;;;5.65;;
55076;SDS011;40971;44.702;11.030;2022-10-31T14:26:54;20.33;;;5.50;;
55076;SDS011;40971;44.702;11.030;2022-10-31T14:29:28;15.75;;;5.63;;
55076;SDS011;40971;44.702;11.030;2022-10-31T14:51:25;14.43;;;5.70;;
55076;SDS011;40971;44.702;11.030;2022-10-31T14:53:56;24.17;;;6.25;;
55076;SDS011;40971;44.702;11.030;2022-10-31T14:58:55;13.35;;;5.43;;
55076;SDS011;40971;44.702;11.030;2022-10-31T15:03:50;10.57;;;4.93;;
55076;SDS011;40971;44.702;11.030;2022-10-31T15:06:17;23.25;;;5.57;;
55076;SDS011;40971;44.702;11.030;2022-10-31T15:11:19;15.85;;;5.85;;
55076;SDS011;40971;44.702;11.030;2022-10-31T15:13:50;17.40;;;5.65;;
55076;SDS011;40971;44.702;11.030;2022-10-31T15:16:17;13.32;;;5.18;;
55076;SDS011;40971;44.702;11.030;2022-10-31T15:18:47;14.30;;;5.35;;
55076;SDS011;40971;44.702;11.030;2022-10-31T15:21:30;21.40;;;5.93;;
55076;SDS011;40971;44.702;11.030;2022-10-31T15:23:59;13.95;;;4.78;;
55076;SDS011;40971;44.702;11.030;2022-10-31T15:26:31;12.80;;;4.68;;
55076;SDS011;40971;44.702;11.030;2022-10-31T15:29:03;16.17;;;5.68;;
55076;SDS011;40971;44.702;11.030;2022-10-31T15:31:31;18.58;;;5.20;;
55076;SDS011;40971;44.702;11.030;2022-10-31T15:34:11;19.13;;;6.57;;
55076;SDS011;40971;44.702;11.030;2022-10-31T15:36:47;16.20;;;5.30;;
55076;SDS011;40971;44.702;11.030;2022-10-31T15:39:13;19.15;;;5.55;;
55076;SDS011;40971;44.702;11.030;2022-10-31T15:47:01;24.83;;;5.28;;
55076;SDS011;40971;44.702;11.030;2022-10-31T15:49:38;35.03;;;6.05;;
55076;SDS011;40971;44.702;11.030;2022-10-31T15:52:17;18.30;;;4.55;;
55076;SDS011;40971;44.702;11.030;2022-10-31T15:57:38;16.05;;;3.83;;
55076;SDS011;40971;44.702;11.030;2022-10-31T16:00:05;16.38;;;3.75;;
55076;SDS011;40971;44.702;11.030;2022-10-31T16:02:31;11.88;;;3.70;;
55076;SDS011;40971;44.702;11.030;2022-10-31T16:05:00;16.63;;;4.07;;
55076;SDS011;40971;44.702;11.030;2022-10-31T16:07:26;14.25;;;4.25;;
55076;SDS011;40971;44.702;11.030;2022-10-31T16:09:57;9.70;;;3.85;;
55076;SDS011;40971;44.702;11.030;2022-10-31T16:12:31;12.32;;;3.70;;
55076;SDS011;40971;44.702;11.030;2022-10-31T16:15:00;19.42;;;4.25;;
55076;SDS011;40971;44.702;11.030;2022-10-31T16:17:26;14.10;;;3.90;;
55076;SDS011;40971;44.702;11.030;2022-10-31T16:22:20;14.93;;;4.60;;
55076;SDS011;40971;44.702;11.030;2022-10-31T16:24:51;21.08;;;4.97;;
55076;SDS011;40971;44.702;11.030;2022-10-31T16:27:27;20.73;;;6.00;;
55076;SDS011;40971;44.702;11.030;2022-10-31T16:29:56;14.30;;;5.18;;
55076;SDS011;40971;44.702;11.030;2022-10-31T16:37:25;13.60;;;4.90;;
55076;SDS011;40971;44.702;11.030;2022-10-31T16:39:51;16.70;;;4.00;;
55076;SDS011;40971;44.702;11.030;2022-10-31T16:42:16;18.70;;;4.70;;
55076;SDS011;40971;44.702;11.030;2022-10-31T16:44:43;13.02;;;4.55;;
55076;SDS011;40971;44.702;11.030;2022-10-31T16:47:14;19.20;;;4.95;;
55076;SDS011;40971;44.702;11.030;2022-10-31T16:49:42;13.13;;;4.22;;
55076;SDS011;40971;44.702;11.030;2022-10-31T16:52:08;18.25;;;6.13;;
55076;SDS011;40971;44.702;11.030;2022-10-31T16:54:34;20.42;;;6.50;;
55076;SDS011;40971;44.702;11.030;2022-10-31T16:56:59;21.20;;;5.57;;
55076;SDS011;40971;44.702;11.030;2022-10-31T16:59:27;12.27;;;4.78;;
55076;SDS011;40971;44.702;11.030;2022-10-31T17:01:54;17.15;;;5.72;;
55076;SDS011;40971;44.702;11.030;2022-10-31T17:04:20;16.80;;;6.05;;
55076;SDS011;40971;44.702;11.030;2022-10-31T17:06:46;21.25;;;7.57;;
55076;SDS011;40971;44.702;11.030;2022-10-31T17:09:11;17.88;;;6.57;;
55076;SDS011;40971;44.702;11.030;2022-10-31T17:11:38;21.80;;;6.03;;
55076;SDS011;40971;44.702;11.030;2022-10-31T17:14:09;19.77;;;6.03;;
55076;SDS011;40971;44.702;11.030;2022-10-31T17:16:35;37.35;;;6.13;;
55076;SDS011;40971;44.702;11.030;2022-10-31T17:19:01;28.40;;;6.38;;
55076;SDS011;40971;44.702;11.030;2022-10-31T17:21:27;25.80;;;5.45;;